sensor_id;sensor_type;location;lat;lon;timestamp;temperature;humidity
8475;DHT22;4274;52.012;8.448;2024-02-14T00:00:53;6.00;99.90
8475;DHT22;4274;52.012;8.448;2024-02-14T00:03:19;6.10;99.90
8475;DHT22;4274;52.012;8.448;2024-02-14T00:05:45;6.10;99.90
8475;DHT22;4274;52.012;8.448;2024-02-14T00:08:11;6.20;99.90
8475;DHT22;4274;52.012;8.448;2024-02-14T00:10:39;6.20;99.90
8475;DHT22;4274;52.012;8.448;2024-02-14T00:13:04;6.30;99.90
8475;DHT22;4274;52.012;8.448;2024-02-14T00:15:30;6.30;99.90
8475;DHT22;4274;52.012;8.448;2024-02-14T00:17:56;6.30;99.90
8475;DHT22;4274;52.012;8.448;2024-02-14T00:20:22;6.40;99.90
8475;DHT22;4274;52.012;8.448;2024-02-14T00:22:47;6.40;99.90
8475;DHT22;4274;52.012;8.448;2024-02-14T00:25:13;6.40;99.90
8475;DHT22;4274;52.012;8.448;2024-02-14T00:27:39;6.50;99.90
8475;DHT22;4274;52.012;8.448;2024-02-14T00:30:06;6.60;99.90
8475;DHT22;4274;52.012;8.448;2024-02-14T00:32:32;6.60;99.90
8475;DHT22;4274;52.012;8.448;2024-02-14T00:34:59;6.60;99.90
8475;DHT22;4274;52.012;8.448;2024-02-14T00:37:24;6.70;99.90
8475;DHT22;4274;52.012;8.448;2024-02-14T00:39:50;6.70;99.90
8475;DHT22;4274;52.012;8.448;2024-02-14T00:42:17;6.70;99.90
8475;DHT22;4274;52.012;8.448;2024-02-14T00:44:42;6.70;99.90
8475;DHT22;4274;52.012;8.448;2024-02-14T00:47:08;6.70;99.90
8475;DHT22;4274;52.012;8.448;2024-02-14T00:49:36;6.80;99.90
8475;DHT22;4274;52.012;8.448;2024-02-14T00:52:03;6.80;99.90
8475;DHT22;4274;52.012;8.448;2024-02-14T00:54:28;6.80;99.90
8475;DHT22;4274;52.012;8.448;2024-02-14T00:56:54;6.80;99.90
8475;DHT22;4274;52.012;8.448;2024-02-14T00:59:19;6.80;99.90
8475;DHT22;4274;52.012;8.448;2024-02-14T01:01:45;6.80;99.90
8475;DHT22;4274;52.012;8.448;2024-02-14T01:04:11;6.80;99.90
8475;DHT22;4274;52.012;8.448;2024-02-14T01:06:36;6.80;99.90
8475;DHT22;4274;52.012;8.448;2024-02-14T01:09:02;6.80;99.90
8475;DHT22;4274;52.012;8.448;2024-02-14T01:11:28;6.90;99.90
8475;DHT22;4274;52.012;8.448;2024-02-14T01:13:54;6.90;99.90
8475;DHT22;4274;52.012;8.448;2024-02-14T01:16:20;6.90;99.90
8475;DHT22;4274;52.012;8.448;2024-02-14T01:18:45;6.90;99.90
8475;DHT22;4274;52.012;8.448;2024-02-14T01:21:11;6.90;99.90
8475;DHT22;4274;52.012;8.448;2024-02-14T01:23:37;7.00;99.90
8475;DHT22;4274;52.012;8.448;2024-02-14T01:26:03;7.00;99.90
8475;DHT22;4274;52.012;8.448;2024-02-14T01:28:29;6.90;99.90
8475;DHT22;4274;52.012;8.448;2024-02-14T01:30:54;6.90;99.90
8475;DHT22;4274;52.012;8.448;2024-02-14T01:33:22;6.90;99.90
8475;DHT22;4274;52.012;8.448;2024-02-14T01:35:48;6.90;99.90
8475;DHT22;4274;52.012;8.448;2024-02-14T01:38:13;6.90;99.90
8475;DHT22;4274;52.012;8.448;2024-02-14T01:40:42;6.80;99.90
8475;DHT22;4274;52.012;8.448;2024-02-14T01:43:10;6.80;99.90
8475;DHT22;4274;52.012;8.448;2024-02-14T01:45:35;6.80;99.90
8475;DHT22;4274;52.012;8.448;2024-02-14T01:48:01;6.80;99.90
8475;DHT22;4274;52.012;8.448;2024-02-14T01:50:28;6.80;99.90
8475;DHT22;4274;52.012;8.448;2024-02-14T01:52:56;6.70;99.90
8475;DHT22;4274;52.012;8.448;2024-02-14T01:55:22;6.80;99.90
8475;DHT22;4274;52.012;8.448;2024-02-14T01:57:48;6.70;99.90
8475;DHT22;4274;52.012;8.448;2024-02-14T02:00:14;6.60;99.90
8475;DHT22;4274;52.012;8.448;2024-02-14T02:02:43;6.60;99.90
8475;DHT22;4274;52.012;8.448;2024-02-14T02:05:09;6.60;99.90
8475;DHT22;4274;52.012;8.448;2024-02-14T02:07:35;6.60;99.90
8475;DHT22;4274;52.012;8.448;2024-02-14T02:10:05;6.60;99.90
8475;DHT22;4274;52.012;8.448;2024-02-14T02:12:30;6.50;99.90
8475;DHT22;4274;52.012;8.448;2024-02-14T02:14:56;6.50;99.90
8475;DHT22;4274;52.012;8.448;2024-02-14T02:17:22;6.50;99.90
8475;DHT22;4274;52.012;8.448;2024-02-14T02:19:48;6.60;99.90
8475;DHT22;4274;52.012;8.448;2024-02-14T02:22:13;6.60;99.90
8475;DHT22;4274;52.012;8.448;2024-02-14T02:24:39;6.60;99.90
8475;DHT22;4274;52.012;8.448;2024-02-14T02:27:05;6.60;99.90
8475;DHT22;4274;52.012;8.448;2024-02-14T02:29:30;6.70;99.90
8475;DHT22;4274;52.012;8.448;2024-02-14T02:31:57;6.70;99.90
8475;DHT22;4274;52.012;8.448;2024-02-14T02:34:23;6.80;99.90
8475;DHT22;4274;52.012;8.448;2024-02-14T02:36:49;6.80;99.90
8475;DHT22;4274;52.012;8.448;2024-02-14T02:39:16;6.80;99.90
8475;DHT22;4274;52.012;8.448;2024-02-14T02:41:42;6.90;99.90
8475;DHT22;4274;52.012;8.448;2024-02-14T02:44:07;6.90;99.90
8475;DHT22;4274;52.012;8.448;2024-02-14T02:46:33;7.00;99.90
8475;DHT22;4274;52.012;8.448;2024-02-14T02:48:59;7.00;99.90
8475;DHT22;4274;52.012;8.448;2024-02-14T02:51:25;7.00;99.90
8475;DHT22;4274;52.012;8.448;2024-02-14T02:53:50;7.10;99.90
8475;DHT22;4274;52.012;8.448;2024-02-14T02:56:19;7.10;99.90
8475;DHT22;4274;52.012;8.448;2024-02-14T02:58:46;7.10;99.90
8475;DHT22;4274;52.012;8.448;2024-02-14T03:01:13;7.10;99.90
8475;DHT22;4274;52.012;8.448;2024-02-14T03:03:39;7.20;99.90
8475;DHT22;4274;52.012;8.448;2024-02-14T03:06:06;7.20;99.90
8475;DHT22;4274;52.012;8.448;2024-02-14T03:08:33;7.20;99.90
8475;DHT22;4274;52.012;8.448;2024-02-14T03:11:04;7.30;99.90
8475;DHT22;4274;52.012;8.448;2024-02-14T03:13:30;7.30;99.90
8475;DHT22;4274;52.012;8.448;2024-02-14T03:15:56;7.30;99.90
8475;DHT22;4274;52.012;8.448;2024-02-14T03:18:24;7.30;99.90
8475;DHT22;4274;52.012;8.448;2024-02-14T03:20:49;7.30;99.90
8475;DHT22;4274;52.012;8.448;2024-02-14T03:23:19;7.30;99.90
8475;DHT22;4274;52.012;8.448;2024-02-14T03:25:45;7.40;99.90
8475;DHT22;4274;52.012;8.448;2024-02-14T03:28:10;7.30;99.90
8475;DHT22;4274;52.012;8.448;2024-02-14T03:30:38;7.30;99.90
8475;DHT22;4274;52.012;8.448;2024-02-14T03:33:04;7.30;99.90
8475;DHT22;4274;52.012;8.448;2024-02-14T03:35:30;7.40;99.90
8475;DHT22;4274;52.012;8.448;2024-02-14T03:37:56;7.50;99.90
8475;DHT22;4274;52.012;8.448;2024-02-14T03:40:21;7.50;99.90
8475;DHT22;4274;52.012;8.448;2024-02-14T03:42:47;7.50;99.90
8475;DHT22;4274;52.012;8.448;2024-02-14T03:45:13;7.50;99.90
8475;DHT22;4274;52.012;8.448;2024-02-14T03:47:39;7.50;99.90
8475;DHT22;4274;52.012;8.448;2024-02-14T03:50:05;7.50;99.90
8475;DHT22;4274;52.012;8.448;2024-02-14T03:52:32;7.40;99.90
8475;DHT22;4274;52.012;8.448;2024-02-14T03:54:59;7.40;99.90
8475;DHT22;4274;52.012;8.448;2024-02-14T03:57:25;7.40;99.90
8475;DHT22;4274;52.012;8.448;2024-02-14T03:59:57;7.40;99.90
8475;DHT22;4274;52.012;8.448;2024-02-14T04:02:22;7.40;99.90
8475;DHT22;4274;52.012;8.448;2024-02-14T04:04:53;7.50;99.90
8475;DHT22;4274;52.012;8.448;2024-02-14T04:07:19;7.50;99.90
8475;DHT22;4274;52.012;8.448;2024-02-14T04:09:45;7.50;99.90
8475;DHT22;4274;52.012;8.448;2024-02-14T04:12:10;7.50;99.90
8475;DHT22;4274;52.012;8.448;2024-02-14T04:14:37;7.50;99.90
8475;DHT22;4274;52.012;8.448;2024-02-14T04:17:03;7.50;99.90
8475;DHT22;4274;52.012;8.448;2024-02-14T04:19:29;7.50;99.90
8475;DHT22;4274;52.012;8.448;2024-02-14T04:21:55;7.50;99.90
8475;DHT22;4274;52.012;8.448;2024-02-14T04:24:20;7.40;99.90
8475;DHT22;4274;52.012;8.448;2024-02-14T04:26:46;7.50;99.90
8475;DHT22;4274;52.012;8.448;2024-02-14T04:29:13;7.50;99.90
8475;DHT22;4274;52.012;8.448;2024-02-14T04:31:39;7.50;99.90
8475;DHT22;4274;52.012;8.448;2024-02-14T04:34:04;7.50;99.90
8475;DHT22;4274;52.012;8.448;2024-02-14T04:36:33;7.50;99.90
8475;DHT22;4274;52.012;8.448;2024-02-14T04:39:00;7.60;99.90
8475;DHT22;4274;52.012;8.448;2024-02-14T04:41:26;7.60;99.90
8475;DHT22;4274;52.012;8.448;2024-02-14T04:43:52;7.70;99.90
8475;DHT22;4274;52.012;8.448;2024-02-14T04:46:18;7.70;99.90
8475;DHT22;4274;52.012;8.448;2024-02-14T04:48:43;7.80;99.90
8475;DHT22;4274;52.012;8.448;2024-02-14T04:51:09;7.80;99.90
8475;DHT22;4274;52.012;8.448;2024-02-14T04:53:34;7.80;99.90
8475;DHT22;4274;52.012;8.448;2024-02-14T04:56:01;7.80;99.90
8475;DHT22;4274;52.012;8.448;2024-02-14T04:58:27;7.90;99.90
8475;DHT22;4274;52.012;8.448;2024-02-14T05:00:53;7.90;99.90
8475;DHT22;4274;52.012;8.448;2024-02-14T05:03:20;7.90;99.90
8475;DHT22;4274;52.012;8.448;2024-02-14T05:05:46;7.90;99.90
8475;DHT22;4274;52.012;8.448;2024-02-14T05:08:12;7.90;99.90
8475;DHT22;4274;52.012;8.448;2024-02-14T05:10:37;7.90;99.90
8475;DHT22;4274;52.012;8.448;2024-02-14T05:13:03;7.90;99.90
8475;DHT22;4274;52.012;8.448;2024-02-14T05:15:29;7.80;99.90
8475;DHT22;4274;52.012;8.448;2024-02-14T05:17:55;7.70;99.90
8475;DHT22;4274;52.012;8.448;2024-02-14T05:20:21;7.70;99.90
8475;DHT22;4274;52.012;8.448;2024-02-14T05:22:47;7.70;99.90
8475;DHT22;4274;52.012;8.448;2024-02-14T05:25:12;7.70;99.90
8475;DHT22;4274;52.012;8.448;2024-02-14T05:27:39;7.60;99.90
8475;DHT22;4274;52.012;8.448;2024-02-14T05:30:05;7.50;99.90
8475;DHT22;4274;52.012;8.448;2024-02-14T05:32:33;7.50;99.90
8475;DHT22;4274;52.012;8.448;2024-02-14T05:34:59;7.50;99.90
8475;DHT22;4274;52.012;8.448;2024-02-14T05:37:25;7.60;99.90
8475;DHT22;4274;52.012;8.448;2024-02-14T05:39:53;7.60;99.90
8475;DHT22;4274;52.012;8.448;2024-02-14T05:42:19;7.50;99.90
8475;DHT22;4274;52.012;8.448;2024-02-14T05:44:44;7.50;99.90
8475;DHT22;4274;52.012;8.448;2024-02-14T05:47:10;7.60;99.90
8475;DHT22;4274;52.012;8.448;2024-02-14T05:49:38;7.50;99.90
8475;DHT22;4274;52.012;8.448;2024-02-14T05:52:05;7.50;99.90
8475;DHT22;4274;52.012;8.448;2024-02-14T05:54:30;7.50;99.90
8475;DHT22;4274;52.012;8.448;2024-02-14T05:56:56;7.60;99.90
8475;DHT22;4274;52.012;8.448;2024-02-14T05:59:23;7.50;99.90
8475;DHT22;4274;52.012;8.448;2024-02-14T06:01:48;7.50;99.90
8475;DHT22;4274;52.012;8.448;2024-02-14T06:04:14;7.50;99.90
8475;DHT22;4274;52.012;8.448;2024-02-14T06:06:39;7.50;99.90
8475;DHT22;4274;52.012;8.448;2024-02-14T06:09:05;7.50;99.90
8475;DHT22;4274;52.012;8.448;2024-02-14T06:11:35;7.50;99.90
8475;DHT22;4274;52.012;8.448;2024-02-14T06:14:01;7.60;99.90
8475;DHT22;4274;52.012;8.448;2024-02-14T06:16:27;7.60;99.90
8475;DHT22;4274;52.012;8.448;2024-02-14T06:18:53;7.60;99.90
8475;DHT22;4274;52.012;8.448;2024-02-14T06:21:19;7.60;99.90
8475;DHT22;4274;52.012;8.448;2024-02-14T06:23:44;7.60;99.90
8475;DHT22;4274;52.012;8.448;2024-02-14T06:26:12;7.60;99.90
8475;DHT22;4274;52.012;8.448;2024-02-14T06:28:37;7.60;99.90
8475;DHT22;4274;52.012;8.448;2024-02-14T06:31:03;7.60;99.90
8475;DHT22;4274;52.012;8.448;2024-02-14T06:33:29;7.60;99.90
8475;DHT22;4274;52.012;8.448;2024-02-14T06:35:54;7.60;99.90
8475;DHT22;4274;52.012;8.448;2024-02-14T06:38:20;7.60;99.90
8475;DHT22;4274;52.012;8.448;2024-02-14T06:40:45;7.60;99.90
8475;DHT22;4274;52.012;8.448;2024-02-14T06:43:11;7.70;99.90
8475;DHT22;4274;52.012;8.448;2024-02-14T06:45:38;7.70;99.90
8475;DHT22;4274;52.012;8.448;2024-02-14T06:48:04;7.70;99.90
8475;DHT22;4274;52.012;8.448;2024-02-14T06:50:30;7.70;99.90
8475;DHT22;4274;52.012;8.448;2024-02-14T06:52:56;7.70;99.90
8475;DHT22;4274;52.012;8.448;2024-02-14T06:55:26;7.70;99.90
8475;DHT22;4274;52.012;8.448;2024-02-14T06:57:52;7.70;99.90
8475;DHT22;4274;52.012;8.448;2024-02-14T07:00:18;7.70;99.90
8475;DHT22;4274;52.012;8.448;2024-02-14T07:02:44;7.80;99.90
8475;DHT22;4274;52.012;8.448;2024-02-14T07:05:12;7.80;99.90
8475;DHT22;4274;52.012;8.448;2024-02-14T07:07:40;7.80;99.90
8475;DHT22;4274;52.012;8.448;2024-02-14T07:10:06;7.80;99.90
8475;DHT22;4274;52.012;8.448;2024-02-14T07:12:32;7.80;99.90
8475;DHT22;4274;52.012;8.448;2024-02-14T07:14:57;7.80;99.90
8475;DHT22;4274;52.012;8.448;2024-02-14T07:17:23;7.80;99.90
8475;DHT22;4274;52.012;8.448;2024-02-14T07:19:49;7.80;99.90
8475;DHT22;4274;52.012;8.448;2024-02-14T07:22:15;7.80;99.90
8475;DHT22;4274;52.012;8.448;2024-02-14T07:24:42;7.90;99.90
8475;DHT22;4274;52.012;8.448;2024-02-14T07:27:12;7.90;99.90
8475;DHT22;4274;52.012;8.448;2024-02-14T07:29:38;7.90;99.90
8475;DHT22;4274;52.012;8.448;2024-02-14T07:32:03;7.90;99.90
8475;DHT22;4274;52.012;8.448;2024-02-14T07:34:29;7.90;99.90
8475;DHT22;4274;52.012;8.448;2024-02-14T07:36:55;7.90;99.90
8475;DHT22;4274;52.012;8.448;2024-02-14T07:39:20;7.90;99.90
8475;DHT22;4274;52.012;8.448;2024-02-14T07:41:46;8.00;99.90
8475;DHT22;4274;52.012;8.448;2024-02-14T07:44:12;8.00;99.90
8475;DHT22;4274;52.012;8.448;2024-02-14T07:46:37;8.00;99.90
8475;DHT22;4274;52.012;8.448;2024-02-14T07:49:03;8.00;99.90
8475;DHT22;4274;52.012;8.448;2024-02-14T07:51:30;8.00;99.90
8475;DHT22;4274;52.012;8.448;2024-02-14T07:54:05;8.00;99.90
8475;DHT22;4274;52.012;8.448;2024-02-14T07:56:31;8.10;99.90
8475;DHT22;4274;52.012;8.448;2024-02-14T07:58:57;8.10;99.90
8475;DHT22;4274;52.012;8.448;2024-02-14T08:01:23;8.10;99.90
8475;DHT22;4274;52.012;8.448;2024-02-14T08:03:48;8.10;99.90
8475;DHT22;4274;52.012;8.448;2024-02-14T08:06:14;8.20;99.90
8475;DHT22;4274;52.012;8.448;2024-02-14T08:08:40;8.10;99.90
8475;DHT22;4274;52.012;8.448;2024-02-14T08:11:05;8.20;99.90
8475;DHT22;4274;52.012;8.448;2024-02-14T08:13:32;8.20;99.90
8475;DHT22;4274;52.012;8.448;2024-02-14T08:15:57;8.20;99.90
8475;DHT22;4274;52.012;8.448;2024-02-14T08:18:24;8.20;99.90
8475;DHT22;4274;52.012;8.448;2024-02-14T08:20:49;8.30;99.90
8475;DHT22;4274;52.012;8.448;2024-02-14T08:23:15;8.30;99.90
8475;DHT22;4274;52.012;8.448;2024-02-14T08:25:41;8.30;99.90
8475;DHT22;4274;52.012;8.448;2024-02-14T08:28:06;8.30;99.90
8475;DHT22;4274;52.012;8.448;2024-02-14T08:30:33;8.30;99.90
8475;DHT22;4274;52.012;8.448;2024-02-14T08:32:59;8.30;99.90
8475;DHT22;4274;52.012;8.448;2024-02-14T08:35:24;8.40;99.90
8475;DHT22;4274;52.012;8.448;2024-02-14T08:37:50;8.40;99.90
8475;DHT22;4274;52.012;8.448;2024-02-14T08:40:15;8.40;99.90
8475;DHT22;4274;52.012;8.448;2024-02-14T08:42:41;8.40;99.90
8475;DHT22;4274;52.012;8.448;2024-02-14T08:45:07;8.40;99.90
8475;DHT22;4274;52.012;8.448;2024-02-14T08:47:33;8.40;99.90
8475;DHT22;4274;52.012;8.448;2024-02-14T08:49:59;8.50;99.90
8475;DHT22;4274;52.012;8.448;2024-02-14T08:52:25;8.50;99.90
8475;DHT22;4274;52.012;8.448;2024-02-14T08:54:51;8.50;99.90
8475;DHT22;4274;52.012;8.448;2024-02-14T08:57:17;8.50;99.90
8475;DHT22;4274;52.012;8.448;2024-02-14T08:59:43;8.50;99.90
8475;DHT22;4274;52.012;8.448;2024-02-14T09:02:12;8.60;99.90
8475;DHT22;4274;52.012;8.448;2024-02-14T09:04:39;8.60;99.90
8475;DHT22;4274;52.012;8.448;2024-02-14T09:07:04;8.60;99.90
8475;DHT22;4274;52.012;8.448;2024-02-14T09:09:30;8.60;99.90
8475;DHT22;4274;52.012;8.448;2024-02-14T09:11:56;8.60;99.90
8475;DHT22;4274;52.012;8.448;2024-02-14T09:14:22;8.60;99.90
8475;DHT22;4274;52.012;8.448;2024-02-14T09:16:48;8.60;99.90
8475;DHT22;4274;52.012;8.448;2024-02-14T09:19:14;8.60;99.90
8475;DHT22;4274;52.012;8.448;2024-02-14T09:21:39;8.60;99.90
8475;DHT22;4274;52.012;8.448;2024-02-14T09:24:05;8.70;99.90
8475;DHT22;4274;52.012;8.448;2024-02-14T09:26:32;8.70;99.90
8475;DHT22;4274;52.012;8.448;2024-02-14T09:28:57;8.70;99.90
8475;DHT22;4274;52.012;8.448;2024-02-14T09:31:23;8.70;99.90
8475;DHT22;4274;52.012;8.448;2024-02-14T09:33:49;8.80;99.90
8475;DHT22;4274;52.012;8.448;2024-02-14T09:36:15;8.70;99.90
8475;DHT22;4274;52.012;8.448;2024-02-14T09:38:41;8.70;99.90
8475;DHT22;4274;52.012;8.448;2024-02-14T09:41:29;8.70;99.90
8475;DHT22;4274;52.012;8.448;2024-02-14T09:43:59;8.70;99.90
8475;DHT22;4274;52.012;8.448;2024-02-14T09:46:25;8.70;99.90
8475;DHT22;4274;52.012;8.448;2024-02-14T09:48:52;8.70;99.90
8475;DHT22;4274;52.012;8.448;2024-02-14T09:51:19;8.80;99.90
8475;DHT22;4274;52.012;8.448;2024-02-14T09:53:44;8.80;99.90
8475;DHT22;4274;52.012;8.448;2024-02-14T09:56:11;8.80;99.90
8475;DHT22;4274;52.012;8.448;2024-02-14T09:58:37;8.80;99.90
8475;DHT22;4274;52.012;8.448;2024-02-14T10:01:03;8.80;99.90
8475;DHT22;4274;52.012;8.448;2024-02-14T10:03:30;8.90;99.90
8475;DHT22;4274;52.012;8.448;2024-02-14T10:05:55;8.80;99.90
8475;DHT22;4274;52.012;8.448;2024-02-14T10:08:22;8.80;99.90
8475;DHT22;4274;52.012;8.448;2024-02-14T10:10:49;8.90;99.90
8475;DHT22;4274;52.012;8.448;2024-02-14T10:13:15;8.80;99.90
8475;DHT22;4274;52.012;8.448;2024-02-14T10:15:41;8.90;99.90
8475;DHT22;4274;52.012;8.448;2024-02-14T10:18:07;8.90;99.90
8475;DHT22;4274;52.012;8.448;2024-02-14T10:20:35;8.90;99.90
8475;DHT22;4274;52.012;8.448;2024-02-14T10:23:07;9.00;99.90
8475;DHT22;4274;52.012;8.448;2024-02-14T10:25:36;9.00;99.90
8475;DHT22;4274;52.012;8.448;2024-02-14T10:28:07;9.10;99.90
8475;DHT22;4274;52.012;8.448;2024-02-14T10:30:37;9.10;99.90
8475;DHT22;4274;52.012;8.448;2024-02-14T10:33:06;9.10;99.90
8475;DHT22;4274;52.012;8.448;2024-02-14T10:35:33;9.20;99.90
8475;DHT22;4274;52.012;8.448;2024-02-14T10:38:00;9.20;99.90
8475;DHT22;4274;52.012;8.448;2024-02-14T10:40:28;9.30;99.90
8475;DHT22;4274;52.012;8.448;2024-02-14T10:42:54;9.30;99.90
8475;DHT22;4274;52.012;8.448;2024-02-14T10:45:20;9.30;99.90
8475;DHT22;4274;52.012;8.448;2024-02-14T10:47:46;9.30;99.90
8475;DHT22;4274;52.012;8.448;2024-02-14T10:50:15;9.40;99.90
8475;DHT22;4274;52.012;8.448;2024-02-14T10:52:41;9.40;99.90
8475;DHT22;4274;52.012;8.448;2024-02-14T10:55:07;9.50;99.90
8475;DHT22;4274;52.012;8.448;2024-02-14T10:57:34;9.50;99.90
8475;DHT22;4274;52.012;8.448;2024-02-14T11:00:06;9.50;99.90
8475;DHT22;4274;52.012;8.448;2024-02-14T11:02:34;9.50;99.90
8475;DHT22;4274;52.012;8.448;2024-02-14T11:05:00;9.50;99.90
8475;DHT22;4274;52.012;8.448;2024-02-14T11:07:28;9.50;99.90
8475;DHT22;4274;52.012;8.448;2024-02-14T11:10:06;9.60;99.90
8475;DHT22;4274;52.012;8.448;2024-02-14T11:12:36;9.60;99.90
8475;DHT22;4274;52.012;8.448;2024-02-14T11:17:38;9.60;99.90
8475;DHT22;4274;52.012;8.448;2024-02-14T11:22:40;9.60;99.90
8475;DHT22;4274;52.012;8.448;2024-02-14T11:25:15;9.60;99.90
8475;DHT22;4274;52.012;8.448;2024-02-14T11:27:47;9.60;99.90
8475;DHT22;4274;52.012;8.448;2024-02-14T11:30:12;9.60;99.90
8475;DHT22;4274;52.012;8.448;2024-02-14T11:32:40;9.60;99.90
8475;DHT22;4274;52.012;8.448;2024-02-14T11:35:11;9.60;99.90
8475;DHT22;4274;52.012;8.448;2024-02-14T11:37:38;9.70;99.90
8475;DHT22;4274;52.012;8.448;2024-02-14T11:40:03;9.60;99.90
8475;DHT22;4274;52.012;8.448;2024-02-14T11:42:29;9.60;99.90
8475;DHT22;4274;52.012;8.448;2024-02-14T11:44:56;9.60;99.90
8475;DHT22;4274;52.012;8.448;2024-02-14T11:47:22;9.60;99.90
8475;DHT22;4274;52.012;8.448;2024-02-14T11:49:48;9.70;99.90
8475;DHT22;4274;52.012;8.448;2024-02-14T11:52:14;9.70;99.90
8475;DHT22;4274;52.012;8.448;2024-02-14T11:54:40;9.70;99.90
8475;DHT22;4274;52.012;8.448;2024-02-14T11:57:10;9.70;99.90
8475;DHT22;4274;52.012;8.448;2024-02-14T11:59:36;9.70;99.90
8475;DHT22;4274;52.012;8.448;2024-02-14T12:02:02;9.70;99.90
8475;DHT22;4274;52.012;8.448;2024-02-14T12:04:28;9.70;99.90
8475;DHT22;4274;52.012;8.448;2024-02-14T12:06:54;9.70;99.90
8475;DHT22;4274;52.012;8.448;2024-02-14T12:09:20;9.80;99.90
8475;DHT22;4274;52.012;8.448;2024-02-14T12:11:47;9.80;99.90
8475;DHT22;4274;52.012;8.448;2024-02-14T12:14:12;9.70;99.90
8475;DHT22;4274;52.012;8.448;2024-02-14T12:16:39;9.80;99.90
8475;DHT22;4274;52.012;8.448;2024-02-14T12:19:18;9.80;99.90
8475;DHT22;4274;52.012;8.448;2024-02-14T12:21:44;9.80;99.90
8475;DHT22;4274;52.012;8.448;2024-02-14T12:24:11;9.80;99.90
8475;DHT22;4274;52.012;8.448;2024-02-14T12:26:38;9.80;99.90
8475;DHT22;4274;52.012;8.448;2024-02-14T12:29:04;9.80;99.90
8475;DHT22;4274;52.012;8.448;2024-02-14T12:31:30;9.80;99.90
8475;DHT22;4274;52.012;8.448;2024-02-14T12:33:59;9.80;99.90
8475;DHT22;4274;52.012;8.448;2024-02-14T12:36:27;9.80;99.90
8475;DHT22;4274;52.012;8.448;2024-02-14T12:38:56;9.80;99.90
8475;DHT22;4274;52.012;8.448;2024-02-14T12:41:23;9.80;99.90
8475;DHT22;4274;52.012;8.448;2024-02-14T12:43:58;9.80;99.90
8475;DHT22;4274;52.012;8.448;2024-02-14T12:46:24;9.80;99.90
8475;DHT22;4274;52.012;8.448;2024-02-14T12:48:50;9.80;99.90
8475;DHT22;4274;52.012;8.448;2024-02-14T12:51:16;9.80;99.90
8475;DHT22;4274;52.012;8.448;2024-02-14T12:53:41;9.80;99.90
8475;DHT22;4274;52.012;8.448;2024-02-14T12:56:07;9.80;99.90
8475;DHT22;4274;52.012;8.448;2024-02-14T12:58:33;9.80;99.90
8475;DHT22;4274;52.012;8.448;2024-02-14T13:00:59;9.80;99.90
8475;DHT22;4274;52.012;8.448;2024-02-14T13:03:25;9.80;99.90
8475;DHT22;4274;52.012;8.448;2024-02-14T13:05:51;9.80;99.90
8475;DHT22;4274;52.012;8.448;2024-02-14T13:08:19;9.80;99.90
8475;DHT22;4274;52.012;8.448;2024-02-14T13:10:45;9.80;99.90
8475;DHT22;4274;52.012;8.448;2024-02-14T13:13:11;9.80;99.90
8475;DHT22;4274;52.012;8.448;2024-02-14T13:15:37;9.80;99.90
8475;DHT22;4274;52.012;8.448;2024-02-14T13:18:03;9.90;99.90
8475;DHT22;4274;52.012;8.448;2024-02-14T13:20:29;9.90;99.90
8475;DHT22;4274;52.012;8.448;2024-02-14T13:22:55;9.90;99.90
8475;DHT22;4274;52.012;8.448;2024-02-14T13:25:20;9.90;99.90
8475;DHT22;4274;52.012;8.448;2024-02-14T13:27:47;9.90;99.90
8475;DHT22;4274;52.012;8.448;2024-02-14T13:30:12;10.00;99.90
8475;DHT22;4274;52.012;8.448;2024-02-14T13:32:38;9.90;99.90
8475;DHT22;4274;52.012;8.448;2024-02-14T13:35:04;10.00;99.90
8475;DHT22;4274;52.012;8.448;2024-02-14T13:37:31;10.00;99.90
8475;DHT22;4274;52.012;8.448;2024-02-14T13:39:57;10.10;99.90
8475;DHT22;4274;52.012;8.448;2024-02-14T13:42:23;10.10;99.90
8475;DHT22;4274;52.012;8.448;2024-02-14T13:44:49;10.10;99.90
8475;DHT22;4274;52.012;8.448;2024-02-14T13:47:17;10.10;99.90
8475;DHT22;4274;52.012;8.448;2024-02-14T13:49:44;10.20;99.90
8475;DHT22;4274;52.012;8.448;2024-02-14T13:52:09;10.20;99.90
8475;DHT22;4274;52.012;8.448;2024-02-14T13:54:35;10.20;99.90
8475;DHT22;4274;52.012;8.448;2024-02-14T13:57:01;10.30;99.90
8475;DHT22;4274;52.012;8.448;2024-02-14T13:59:28;10.30;99.90
8475;DHT22;4274;52.012;8.448;2024-02-14T14:01:53;10.30;99.90
8475;DHT22;4274;52.012;8.448;2024-02-14T14:04:19;10.40;99.90
8475;DHT22;4274;52.012;8.448;2024-02-14T14:06:46;10.40;99.90
8475;DHT22;4274;52.012;8.448;2024-02-14T14:09:13;10.40;99.90
8475;DHT22;4274;52.012;8.448;2024-02-14T14:11:38;10.40;99.90
8475;DHT22;4274;52.012;8.448;2024-02-14T14:14:05;10.40;99.90
8475;DHT22;4274;52.012;8.448;2024-02-14T14:16:31;10.40;99.90
8475;DHT22;4274;52.012;8.448;2024-02-14T14:18:58;10.40;99.90
8475;DHT22;4274;52.012;8.448;2024-02-14T14:21:24;10.40;99.90
8475;DHT22;4274;52.012;8.448;2024-02-14T14:23:49;10.50;99.90
8475;DHT22;4274;52.012;8.448;2024-02-14T14:26:15;10.50;99.90
8475;DHT22;4274;52.012;8.448;2024-02-14T14:28:41;10.50;99.90
8475;DHT22;4274;52.012;8.448;2024-02-14T14:31:07;10.50;99.90
8475;DHT22;4274;52.012;8.448;2024-02-14T14:33:36;10.50;99.90
8475;DHT22;4274;52.012;8.448;2024-02-14T14:36:02;10.50;99.90
8475;DHT22;4274;52.012;8.448;2024-02-14T14:38:28;10.60;99.90
8475;DHT22;4274;52.012;8.448;2024-02-14T14:40:55;10.60;99.90
8475;DHT22;4274;52.012;8.448;2024-02-14T14:43:21;10.60;99.90
8475;DHT22;4274;52.012;8.448;2024-02-14T14:45:47;10.60;99.90
8475;DHT22;4274;52.012;8.448;2024-02-14T14:48:14;10.60;99.90
8475;DHT22;4274;52.012;8.448;2024-02-14T14:50:40;10.60;99.90
8475;DHT22;4274;52.012;8.448;2024-02-14T14:53:06;10.60;99.90
8475;DHT22;4274;52.012;8.448;2024-02-14T14:58:17;10.60;99.90
8475;DHT22;4274;52.012;8.448;2024-02-14T15:00:43;10.60;99.90
8475;DHT22;4274;52.012;8.448;2024-02-14T15:03:09;10.60;99.90
8475;DHT22;4274;52.012;8.448;2024-02-14T15:05:36;10.70;99.90
8475;DHT22;4274;52.012;8.448;2024-02-14T15:08:04;10.60;99.90
8475;DHT22;4274;52.012;8.448;2024-02-14T15:10:29;10.60;99.90
8475;DHT22;4274;52.012;8.448;2024-02-14T15:12:55;10.70;99.90
8475;DHT22;4274;52.012;8.448;2024-02-14T15:15:20;10.60;99.90
8475;DHT22;4274;52.012;8.448;2024-02-14T15:17:46;10.60;99.90
8475;DHT22;4274;52.012;8.448;2024-02-14T15:20:12;10.60;99.90
8475;DHT22;4274;52.012;8.448;2024-02-14T15:22:37;10.50;99.90
8475;DHT22;4274;52.012;8.448;2024-02-14T15:25:04;10.50;99.90
8475;DHT22;4274;52.012;8.448;2024-02-14T15:27:29;10.50;99.90
8475;DHT22;4274;52.012;8.448;2024-02-14T15:29:57;10.50;99.90
8475;DHT22;4274;52.012;8.448;2024-02-14T15:32:41;10.40;99.90
8475;DHT22;4274;52.012;8.448;2024-02-14T15:35:25;10.40;99.90
8475;DHT22;4274;52.012;8.448;2024-02-14T15:37:51;10.40;99.90
8475;DHT22;4274;52.012;8.448;2024-02-14T15:40:18;10.40;99.90
8475;DHT22;4274;52.012;8.448;2024-02-14T15:42:44;10.30;99.90
8475;DHT22;4274;52.012;8.448;2024-02-14T15:45:10;10.30;99.90
8475;DHT22;4274;52.012;8.448;2024-02-14T15:47:44;10.30;99.90
8475;DHT22;4274;52.012;8.448;2024-02-14T15:50:10;10.30;99.90
8475;DHT22;4274;52.012;8.448;2024-02-14T15:52:37;10.30;99.90
8475;DHT22;4274;52.012;8.448;2024-02-14T15:55:06;10.30;99.90
8475;DHT22;4274;52.012;8.448;2024-02-14T15:57:36;10.30;99.90
8475;DHT22;4274;52.012;8.448;2024-02-14T16:00:03;10.30;99.90
8475;DHT22;4274;52.012;8.448;2024-02-14T16:02:31;10.20;99.90
8475;DHT22;4274;52.012;8.448;2024-02-14T16:04:57;10.20;99.90
8475;DHT22;4274;52.012;8.448;2024-02-14T16:07:23;10.20;99.90
8475;DHT22;4274;52.012;8.448;2024-02-14T16:09:48;10.20;99.90
8475;DHT22;4274;52.012;8.448;2024-02-14T16:12:14;10.20;99.90
8475;DHT22;4274;52.012;8.448;2024-02-14T16:14:42;10.20;99.90
8475;DHT22;4274;52.012;8.448;2024-02-14T16:17:09;10.20;99.90